Time;durP1;ratioP1;P1;durP2;ratioP2;P2;SDS_P1;SDS_P2;PMS_P1;PMS_P2;Temp;Humidity;BMP_temperature;BMP_pressure;BME280_temperature;BME280_humidity;BME280_pressure;Samples;Min_cycle;Max_cycle;Signal;HPM_P1;HPM_P2
2022/09/09 00:01:57;;;;;;;;;;;15.60;99.90;;;;;;5053681;28;20023;-65
2022/09/09 00:04:29;;;;;;;;;;;15.50;99.90;;;;;;5076146;28;19947;-66
2022/09/09 00:07:00;;;;;;;;;;;15.40;99.90;;;;;;5065658;28;20388;-66
2022/09/09 00:09:28;;;;;;;;;;;15.30;99.90;;;;;;5051122;28;19925;-66
2022/09/09 00:11:59;;;;;;;;;;;15.20;99.90;;;;;;5071103;28;20445;-65
2022/09/09 00:14:31;;;;;;;;;;;15.10;99.90;;;;;;5065265;28;19978;-66
2022/09/09 00:17:01;;;;;;;;;;;15.10;99.90;;;;;;5062085;28;19977;-66
2022/09/09 00:19:33;;;;;;;;;;;15.00;99.90;;;;;;5070418;28;19924;-66
2022/09/09 00:22:06;;;;;;;;;;;15.00;99.90;;;;;;5071059;28;19925;-66
2022/09/09 00:24:36;;;;;;;;;;;15.00;99.90;;;;;;5053348;28;19924;-65
2022/09/09 00:27:07;;;;;;;;;;;15.10;99.90;;;;;;5070814;28;20272;-66
2022/09/09 00:29:37;;;;;;;;;;;15.10;99.90;;;;;;5052336;28;19924;-65
2022/09/09 00:32:09;;;;;;;;;;;15.10;99.90;;;;;;5065256;28;19935;-65
2022/09/09 00:34:40;;;;;;;;;;;15.10;99.90;;;;;;5052916;28;19924;-65
2022/09/09 00:37:09;;;;;;;;;;;15.00;99.90;;;;;;5053319;28;19959;-65
2022/09/09 00:39:38;;;;;;;;;;;15.10;99.90;;;;;;5052252;28;19929;-65
2022/09/09 00:42:12;;;;;;;;;;;15.00;99.90;;;;;;5069123;28;20469;-66
2022/09/09 00:44:39;;;;;;;;;;;14.90;99.90;;;;;;5052878;28;19978;-65
2022/09/09 00:47:21;;;;;;;;;;;14.90;99.90;;;;;;5052731;28;19933;-65
2022/09/09 00:49:58;;;;;;;;;;;14.90;99.90;;;;;;5052117;28;20410;-65
2022/09/09 00:52:31;;;;;;;;;;;14.90;99.90;;;;;;5052704;28;19924;-65
2022/09/09 00:55:03;;;;;;;;;;;15.00;99.90;;;;;;5079246;28;19928;-65
2022/09/09 00:57:31;;;;;;;;;;;15.00;99.90;;;;;;5051551;28;19928;-66
2022/09/09 00:59:59;;;;;;;;;;;14.90;99.90;;;;;;5052050;28;19960;-65
2022/09/09 01:02:28;;;;;;;;;;;14.90;99.90;;;;;;5052773;28;19924;-65
2022/09/09 01:04:58;;;;;;;;;;;14.90;99.90;;;;;;5068296;28;20412;-65
2022/09/09 01:07:25;;;;;;;;;;;15.00;99.90;;;;;;5049302;28;19932;-65
2022/09/09 01:09:53;;;;;;;;;;;15.00;99.90;;;;;;5052236;28;19932;-65
2022/09/09 01:12:26;;;;;;;;;;;15.00;99.90;;;;;;5053788;28;20395;-65
2022/09/09 01:14:59;;;;;;;;;;;15.10;99.90;;;;;;5056437;28;19924;-65
2022/09/09 01:17:27;;;;;;;;;;;15.00;99.90;;;;;;5051403;28;20406;-65
2022/09/09 01:20:07;;;;;;;;;;;15.00;99.90;;;;;;5050272;28;19929;-65
2022/09/09 01:22:50;;;;;;;;;;;15.00;99.90;;;;;;5050479;28;20011;-65
2022/09/09 01:25:20;;;;;;;;;;;15.00;99.90;;;;;;5052873;28;19955;-66
2022/09/09 01:27:58;;;;;;;;;;;15.00;99.90;;;;;;5050482;28;19932;-66
2022/09/09 01:30:25;;;;;;;;;;;15.00;99.90;;;;;;5053231;28;19970;-65
2022/09/09 01:32:55;;;;;;;;;;;15.00;99.90;;;;;;5056286;28;19932;-65
2022/09/09 01:35:30;;;;;;;;;;;15.00;99.90;;;;;;5082418;28;19925;-65
2022/09/09 01:37:58;;;;;;;;;;;14.90;99.90;;;;;;5076520;28;20303;-65
2022/09/09 01:40:26;;;;;;;;;;;15.00;99.90;;;;;;5047734;28;20395;-65
2022/09/09 01:42:54;;;;;;;;;;;14.90;99.90;;;;;;5058479;28;19928;-66
2022/09/09 01:45:23;;;;;;;;;;;14.90;99.90;;;;;;5054034;28;19928;-66
2022/09/09 01:47:50;;;;;;;;;;;14.90;99.90;;;;;;5057458;28;20019;-65
2022/09/09 01:50:22;;;;;;;;;;;14.90;99.90;;;;;;5084741;28;19932;-65
2022/09/09 01:52:51;;;;;;;;;;;14.90;99.90;;;;;;5057376;28;20387;-65
2022/09/09 01:55:24;;;;;;;;;;;14.90;99.90;;;;;;5054347;28;19978;-65
2022/09/09 01:57:57;;;;;;;;;;;14.90;99.90;;;;;;5057231;28;20380;-65
2022/09/09 02:00:25;;;;;;;;;;;14.90;99.90;;;;;;5045803;28;19928;-65
2022/09/09 02:03:01;;;;;;;;;;;15.00;99.90;;;;;;5057251;28;20019;-65
2022/09/09 02:05:38;;;;;;;;;;;14.90;99.90;;;;;;5056536;28;19932;-65
2022/09/09 02:08:09;;;;;;;;;;;14.90;99.90;;;;;;5056673;28;19979;-65
2022/09/09 02:10:55;;;;;;;;;;;15.00;99.90;;;;;;5056173;28;19932;-65
2022/09/09 02:13:37;;;;;;;;;;;15.00;99.90;;;;;;5056661;28;19924;-65
2022/09/09 02:16:08;;;;;;;;;;;15.10;99.90;;;;;;5084761;28;19931;-65
2022/09/09 02:18:38;;;;;;;;;;;15.20;99.90;;;;;;5056483;28;20009;-65
2022/09/09 02:21:06;;;;;;;;;;;15.20;99.90;;;;;;5051246;28;20009;-65
2022/09/09 02:23:34;;;;;;;;;;;15.20;99.90;;;;;;5054343;28;19925;-65
2022/09/09 02:26:04;;;;;;;;;;;15.20;99.90;;;;;;5056485;28;19971;-65
2022/09/09 02:28:33;;;;;;;;;;;15.20;99.90;;;;;;5056436;28;19928;-65
2022/09/09 02:31:00;;;;;;;;;;;15.20;99.90;;;;;;5055581;28;19932;-65
2022/09/09 02:33:37;;;;;;;;;;;15.20;99.90;;;;;;5056353;28;19924;-65
2022/09/09 02:36:06;;;;;;;;;;;15.30;99.90;;;;;;5054110;28;19974;-65
2022/09/09 02:38:37;;;;;;;;;;;15.30;99.90;;;;;;5056275;28;19964;-65
2022/09/09 02:41:09;;;;;;;;;;;15.30;99.90;;;;;;5053106;28;20016;-65
2022/09/09 02:43:37;;;;;;;;;;;15.30;99.90;;;;;;5054802;28;20019;-65
2022/09/09 02:46:10;;;;;;;;;;;15.40;99.90;;;;;;5055596;28;19989;-65
2022/09/09 02:48:43;;;;;;;;;;;15.40;99.90;;;;;;5056175;28;20035;-66
2022/09/09 02:51:16;;;;;;;;;;;15.40;99.90;;;;;;5055412;28;19955;-65
2022/09/09 02:53:45;;;;;;;;;;;15.40;99.90;;;;;;5056204;28;19931;-65
2022/09/09 02:56:15;;;;;;;;;;;15.40;99.90;;;;;;5052617;28;20395;-65
2022/09/09 02:58:44;;;;;;;;;;;15.40;99.90;;;;;;5055690;28;19924;-65
2022/09/09 03:01:11;;;;;;;;;;;15.40;99.90;;;;;;5055227;28;20388;-65
2022/09/09 03:03:41;;;;;;;;;;;15.40;99.90;;;;;;5055798;28;19925;-65
2022/09/09 03:06:12;;;;;;;;;;;15.50;99.90;;;;;;5055601;28;19935;-65
2022/09/09 03:08:39;;;;;;;;;;;15.50;99.90;;;;;;5051485;28;20031;-65
2022/09/09 03:11:06;;;;;;;;;;;15.60;99.90;;;;;;5055082;28;19966;-65
2022/09/09 03:13:37;;;;;;;;;;;15.60;99.90;;;;;;5055532;28;19978;-65
2022/09/09 03:16:05;;;;;;;;;;;15.70;99.90;;;;;;5076993;28;19924;-65
2022/09/09 03:18:36;;;;;;;;;;;15.70;99.90;;;;;;5055608;28;20281;-65
2022/09/09 03:21:04;;;;;;;;;;;15.80;99.90;;;;;;5054809;28;19932;-65
2022/09/09 03:23:31;;;;;;;;;;;15.80;99.90;;;;;;5055587;28;19925;-65
2022/09/09 03:26:02;;;;;;;;;;;15.80;99.90;;;;;;5047358;28;19925;-65
2022/09/09 03:28:38;;;;;;;;;;;15.80;99.90;;;;;;5054805;28;20070;-65
2022/09/09 03:31:10;;;;;;;;;;;15.80;99.90;;;;;;5051451;28;19956;-65
2022/09/09 03:33:41;;;;;;;;;;;15.90;99.90;;;;;;5055217;28;19932;-65
2022/09/09 03:36:10;;;;;;;;;;;15.90;99.90;;;;;;5051419;28;20569;-65
2022/09/09 03:38:37;;;;;;;;;;;15.80;99.90;;;;;;5047593;28;19960;-65
2022/09/09 03:41:07;;;;;;;;;;;15.80;99.90;;;;;;5054613;28;19925;-65
2022/09/09 03:43:34;;;;;;;;;;;15.80;99.90;;;;;;5055135;28;19970;-65
2022/09/09 03:46:01;;;;;;;;;;;15.80;99.90;;;;;;5054845;28;19925;-65
2022/09/09 03:48:29;;;;;;;;;;;15.80;99.90;;;;;;5050740;28;19933;-65
2022/09/09 03:50:57;;;;;;;;;;;15.70;99.90;;;;;;5050017;28;20307;-65
2022/09/09 03:53:26;;;;;;;;;;;15.70;99.90;;;;;;5054629;28;19925;-66
2022/09/09 03:55:54;;;;;;;;;;;15.70;99.90;;;;;;5073311;28;19929;-65
2022/09/09 03:58:23;;;;;;;;;;;15.60;99.90;;;;;;5051534;28;19925;-65
2022/09/09 04:00:54;;;;;;;;;;;15.60;99.90;;;;;;5050964;28;19931;-65
2022/09/09 04:03:22;;;;;;;;;;;15.60;99.90;;;;;;5087615;28;19931;-65
2022/09/09 04:05:49;;;;;;;;;;;15.60;99.90;;;;;;5049126;28;19986;-65
2022/09/09 04:08:16;;;;;;;;;;;15.60;99.90;;;;;;5084372;28;19932;-65
2022/09/09 04:10:45;;;;;;;;;;;15.70;99.90;;;;;;5053961;28;19929;-65
2022/09/09 04:13:13;;;;;;;;;;;15.70;99.90;;;;;;5054713;28;19925;-65
2022/09/09 04:15:42;;;;;;;;;;;15.70;99.90;;;;;;5054693;28;19963;-65
2022/09/09 04:18:09;;;;;;;;;;;15.80;99.90;;;;;;5054144;28;20415;-65
2022/09/09 04:20:35;;;;;;;;;;;15.80;99.90;;;;;;5053756;28;19957;-66
2022/09/09 04:23:03;;;;;;;;;;;15.90;99.90;;;;;;5051335;28;19924;-65
2022/09/09 04:25:30;;;;;;;;;;;15.90;99.90;;;;;;5050825;28;19924;-65
2022/09/09 04:27:58;;;;;;;;;;;15.80;99.90;;;;;;5046190;28;19925;-66
2022/09/09 04:30:27;;;;;;;;;;;15.90;99.90;;;;;;5044822;28;20031;-66
2022/09/09 04:32:54;;;;;;;;;;;15.90;99.90;;;;;;5045956;28;20404;-65
2022/09/09 04:35:20;;;;;;;;;;;15.90;99.90;;;;;;5050264;28;20388;-66
2022/09/09 04:37:48;;;;;;;;;;;15.90;99.90;;;;;;5048359;28;20011;-65
2022/09/09 04:40:15;;;;;;;;;;;15.90;99.90;;;;;;5048329;28;19931;-65
2022/09/09 04:42:43;;;;;;;;;;;15.90;99.90;;;;;;5052266;28;19928;-65
2022/09/09 04:45:13;;;;;;;;;;;15.90;99.90;;;;;;5054194;28;19925;-65
2022/09/09 04:47:40;;;;;;;;;;;15.90;99.90;;;;;;5051069;28;19924;-65
2022/09/09 04:50:08;;;;;;;;;;;15.90;99.90;;;;;;5053634;28;19925;-65
2022/09/09 04:52:35;;;;;;;;;;;15.90;99.90;;;;;;5066287;28;19930;-66
2022/09/09 04:55:02;;;;;;;;;;;15.90;99.90;;;;;;5054110;28;19924;-66
2022/09/09 04:57:31;;;;;;;;;;;15.90;99.90;;;;;;5066267;28;20237;-74
2022/09/09 04:59:59;;;;;;;;;;;15.90;99.90;;;;;;5046092;28;19944;-73
2022/09/09 05:02:30;;;;;;;;;;;15.90;99.90;;;;;;5077450;28;19931;-71
2022/09/09 05:04:58;;;;;;;;;;;15.90;99.90;;;;;;5052596;28;19952;-70
2022/09/09 05:07:26;;;;;;;;;;;15.90;99.90;;;;;;5050623;28;19925;-66
2022/09/09 05:09:53;;;;;;;;;;;15.90;99.90;;;;;;5044160;28;19932;-66
2022/09/09 05:12:20;;;;;;;;;;;15.90;99.90;;;;;;5083460;28;19974;-66
2022/09/09 05:14:51;;;;;;;;;;;16.00;99.90;;;;;;5069338;28;19925;-66
2022/09/09 05:17:18;;;;;;;;;;;15.90;99.90;;;;;;5053576;28;19925;-69
2022/09/09 05:19:47;;;;;;;;;;;15.90;99.90;;;;;;5049775;28;19970;-66
2022/09/09 05:22:19;;;;;;;;;;;15.90;99.90;;;;;;5082868;28;19928;-66
2022/09/09 05:24:50;;;;;;;;;;;15.90;99.90;;;;;;5053728;28;19925;-66
2022/09/09 05:27:18;;;;;;;;;;;15.90;99.90;;;;;;5053766;28;19932;-66
2022/09/09 05:29:44;;;;;;;;;;;15.90;99.90;;;;;;5053027;28;19971;-66
2022/09/09 05:32:13;;;;;;;;;;;16.00;99.90;;;;;;5053800;28;19979;-66
2022/09/09 05:34:40;;;;;;;;;;;16.00;99.90;;;;;;5052609;28;19928;-66
2022/09/09 05:37:08;;;;;;;;;;;16.00;99.90;;;;;;5053627;28;19924;-66
2022/09/09 05:39:37;;;;;;;;;;;16.00;99.90;;;;;;5052797;28;20023;-66
2022/09/09 05:42:04;;;;;;;;;;;16.00;99.90;;;;;;5050324;28;19928;-69
2022/09/09 05:44:33;;;;;;;;;;;16.00;99.90;;;;;;5068109;28;19970;-66
2022/09/09 05:47:01;;;;;;;;;;;16.10;99.90;;;;;;5049850;28;19925;-66
2022/09/09 05:49:28;;;;;;;;;;;16.10;99.90;;;;;;5050487;28;19931;-66
2022/09/09 05:51:54;;;;;;;;;;;16.10;99.90;;;;;;5053177;28;19929;-66
2022/09/09 05:54:25;;;;;;;;;;;16.10;99.90;;;;;;5051653;28;20384;-66
2022/09/09 05:56:53;;;;;;;;;;;16.10;99.90;;;;;;5052389;28;19925;-66
2022/09/09 05:59:20;;;;;;;;;;;16.10;99.90;;;;;;5045232;28;19924;-66
2022/09/09 06:01:47;;;;;;;;;;;16.10;99.90;;;;;;5052354;28;20304;-66
2022/09/09 06:04:30;;;;;;;;;;;16.20;99.90;;;;;;5054355;28;20384;-66
2022/09/09 06:06:57;;;;;;;;;;;16.20;99.90;;;;;;5050930;28;19978;-66
2022/09/09 06:09:25;;;;;;;;;;;16.20;99.90;;;;;;5052959;28;20477;-66
2022/09/09 06:11:52;;;;;;;;;;;16.30;99.90;;;;;;5056788;28;19931;-66
2022/09/09 06:14:21;;;;;;;;;;;16.30;99.90;;;;;;5056432;28;19924;-66
2022/09/09 06:16:49;;;;;;;;;;;16.30;99.90;;;;;;5073728;28;19978;-68
2022/09/09 06:19:26;;;;;;;;;;;16.40;99.90;;;;;;5053298;28;20475;-67
2022/09/09 06:21:54;;;;;;;;;;;16.50;99.90;;;;;;5053710;28;19929;-67
2022/09/09 06:24:22;;;;;;;;;;;16.50;99.90;;;;;;5086446;28;19959;-67
2022/09/09 06:26:50;;;;;;;;;;;16.50;99.90;;;;;;5053044;28;20293;-67
2022/09/09 06:29:21;;;;;;;;;;;16.50;99.90;;;;;;5086058;28;20391;-67
2022/09/09 06:31:48;;;;;;;;;;;16.50;99.90;;;;;;5055787;28;20391;-67
2022/09/09 06:34:20;;;;;;;;;;;16.50;99.90;;;;;;5053172;28;19925;-67
2022/09/09 06:36:51;;;;;;;;;;;16.50;99.90;;;;;;5076971;28;20011;-67
2022/09/09 06:39:18;;;;;;;;;;;16.40;99.90;;;;;;5077756;28;19925;-67
2022/09/09 06:41:46;;;;;;;;;;;16.40;99.90;;;;;;5078010;28;19936;-67
2022/09/09 06:44:37;;;;;;;;;;;16.40;99.90;;;;;;5069791;28;19935;-67
2022/09/09 06:47:06;;;;;;;;;;;16.50;99.90;;;;;;5056137;28;19931;-67
2022/09/09 06:49:34;;;;;;;;;;;16.50;99.90;;;;;;5055563;28;19924;-67
2022/09/09 06:52:04;;;;;;;;;;;16.50;99.90;;;;;;5056165;28;19925;-67
2022/09/09 06:54:31;;;;;;;;;;;16.60;99.90;;;;;;5055865;28;19924;-67
2022/09/09 06:57:00;;;;;;;;;;;16.70;99.90;;;;;;5053289;28;19933;-67
2022/09/09 06:59:27;;;;;;;;;;;16.70;99.90;;;;;;5088844;28;19924;-67
2022/09/09 07:01:56;;;;;;;;;;;16.70;99.90;;;;;;5054380;28;19933;-67
2022/09/09 07:04:25;;;;;;;;;;;16.80;99.90;;;;;;5055503;28;19931;-67
2022/09/09 07:06:52;;;;;;;;;;;16.80;99.90;;;;;;5055938;28;19931;-66
2022/09/09 07:09:23;;;;;;;;;;;16.90;99.90;;;;;;5055255;28;19924;-67
2022/09/09 07:11:53;;;;;;;;;;;16.90;99.90;;;;;;5055561;28;19924;-67
2022/09/09 07:14:22;;;;;;;;;;;17.00;99.90;;;;;;5062984;28;19962;-67
2022/09/09 07:16:53;;;;;;;;;;;17.10;99.90;;;;;;5055862;28;19931;-67
2022/09/09 07:19:22;;;;;;;;;;;17.30;99.90;;;;;;5072656;28;19925;-67
2022/09/09 07:21:52;;;;;;;;;;;17.40;99.90;;;;;;5046903;28;19959;-67
2022/09/09 07:24:21;;;;;;;;;;;17.50;99.90;;;;;;5053918;28;19929;-67
2022/09/09 07:26:49;;;;;;;;;;;17.60;99.90;;;;;;5054107;28;19924;-67
2022/09/09 07:29:16;;;;;;;;;;;17.70;99.90;;;;;;5053319;28;19935;-67
2022/09/09 07:31:44;;;;;;;;;;;17.70;99.90;;;;;;5053946;28;19950;-67
2022/09/09 07:34:14;;;;;;;;;;;17.90;99.90;;;;;;5054043;28;20032;-67
2022/09/09 07:36:43;;;;;;;;;;;18.00;99.90;;;;;;5054079;28;19932;-67
2022/09/09 07:39:13;;;;;;;;;;;18.00;99.90;;;;;;5050464;28;20028;-67
2022/09/09 07:41:44;;;;;;;;;;;18.00;99.90;;;;;;5084600;28;19928;-67
2022/09/09 07:44:13;;;;;;;;;;;18.00;99.90;;;;;;5053818;28;19924;-66
2022/09/09 07:46:43;;;;;;;;;;;17.90;99.90;;;;;;5053420;28;20499;-67
2022/09/09 07:49:11;;;;;;;;;;;17.90;99.90;;;;;;5053283;28;19925;-67
2022/09/09 07:51:40;;;;;;;;;;;18.00;99.90;;;;;;5053555;28;20019;-67
2022/09/09 07:54:09;;;;;;;;;;;18.00;99.90;;;;;;5053734;28;19924;-67
2022/09/09 07:56:38;;;;;;;;;;;18.20;99.90;;;;;;5053938;28;19930;-67
2022/09/09 07:59:06;;;;;;;;;;;18.30;99.90;;;;;;5053142;28;20027;-67
2022/09/09 08:01:38;;;;;;;;;;;18.30;99.90;;;;;;5053567;28;19925;-67
2022/09/09 08:04:06;;;;;;;;;;;18.30;99.90;;;;;;5048094;28;19925;-67
2022/09/09 08:06:36;;;;;;;;;;;18.30;99.90;;;;;;5051827;28;20303;-67
2022/09/09 08:09:04;;;;;;;;;;;18.30;99.90;;;;;;5049750;28;19929;-67
2022/09/09 08:11:35;;;;;;;;;;;18.30;99.90;;;;;;5053481;28;19924;-66
2022/09/09 08:14:03;;;;;;;;;;;18.30;99.90;;;;;;5053513;28;19935;-67
2022/09/09 08:16:31;;;;;;;;;;;18.30;99.90;;;;;;5053220;28;20458;-67
2022/09/09 08:18:59;;;;;;;;;;;18.40;99.90;;;;;;5052697;28;19931;-67
2022/09/09 08:21:27;;;;;;;;;;;18.40;99.90;;;;;;5052592;28;19928;-67
2022/09/09 08:23:56;;;;;;;;;;;18.40;99.90;;;;;;5064417;28;20354;-67
2022/09/09 08:26:24;;;;;;;;;;;18.50;99.90;;;;;;5050394;28;20470;-67
2022/09/09 08:28:54;;;;;;;;;;;18.60;99.90;;;;;;5052573;28;19925;-67
2022/09/09 08:31:22;;;;;;;;;;;18.80;99.90;;;;;;5052802;28;19931;-67
2022/09/09 08:33:49;;;;;;;;;;;18.90;99.90;;;;;;5079971;28;19928;-67
2022/09/09 08:36:16;;;;;;;;;;;18.70;99.90;;;;;;5052987;28;19925;-67
2022/09/09 08:38:44;;;;;;;;;;;18.80;99.90;;;;;;5074838;28;20444;-67
2022/09/09 08:41:26;;;;;;;;;;;18.90;99.90;;;;;;5052775;28;20014;-67
2022/09/09 08:44:01;;;;;;;;;;;18.90;99.90;;;;;;5070361;28;19925;-67
2022/09/09 08:46:33;;;;;;;;;;;18.80;99.90;;;;;;5050322;28;19947;-67
2022/09/09 08:49:02;;;;;;;;;;;18.70;99.90;;;;;;5052377;28;20353;-66
2022/09/09 08:51:31;;;;;;;;;;;18.60;99.90;;;;;;5073629;28;20023;-67
2022/09/09 08:53:59;;;;;;;;;;;18.70;99.90;;;;;;5068726;28;19924;-67
2022/09/09 08:56:28;;;;;;;;;;;18.90;99.90;;;;;;5050244;28;19959;-67
2022/09/09 08:59:01;;;;;;;;;;;18.80;99.90;;;;;;5051934;28;19935;-66
2022/09/09 09:01:43;;;;;;;;;;;18.80;99.90;;;;;;5052910;28;19986;-67
2022/09/09 09:04:21;;;;;;;;;;;18.50;99.90;;;;;;5074134;28;19924;-67
2022/09/09 09:06:51;;;;;;;;;;;18.30;99.90;;;;;;5082003;28;19970;-67
2022/09/09 09:09:22;;;;;;;;;;;18.30;99.90;;;;;;5047964;28;19925;-67
2022/09/09 09:11:50;;;;;;;;;;;18.30;99.90;;;;;;5075585;28;19930;-67
2022/09/09 09:14:21;;;;;;;;;;;18.50;99.90;;;;;;5052625;28;20024;-67
2022/09/09 09:16:51;;;;;;;;;;;18.70;99.90;;;;;;5068673;28;19989;-67
2022/09/09 09:19:18;;;;;;;;;;;18.80;99.90;;;;;;5074328;28;20299;-67
2022/09/09 09:21:50;;;;;;;;;;;19.00;99.90;;;;;;5079564;28;19936;-67
2022/09/09 09:24:18;;;;;;;;;;;19.10;99.90;;;;;;5052717;28;20035;-67
2022/09/09 09:26:46;;;;;;;;;;;19.20;99.90;;;;;;5073613;28;19924;-67
2022/09/09 09:29:14;;;;;;;;;;;19.10;99.90;;;;;;5048585;28;19929;-67
2022/09/09 09:31:44;;;;;;;;;;;19.20;99.90;;;;;;5067439;28;19932;-67
2022/09/09 09:34:11;;;;;;;;;;;19.50;99.90;;;;;;5054976;28;19931;-67
2022/09/09 09:36:42;;;;;;;;;;;19.50;99.90;;;;;;5056481;28;20453;-67
2022/09/09 09:39:11;;;;;;;;;;;19.80;99.90;;;;;;5056121;28;19978;-67
2022/09/09 09:41:43;;;;;;;;;;;20.00;99.90;;;;;;5082102;28;19939;-67
2022/09/09 09:44:22;;;;;;;;;;;20.20;99.90;;;;;;5083492;28;19929;-67
2022/09/09 09:46:50;;;;;;;;;;;20.20;99.90;;;;;;5055908;28;20014;-67
2022/09/09 09:49:18;;;;;;;;;;;20.00;99.90;;;;;;5055845;28;19928;-67
2022/09/09 09:51:44;;;;;;;;;;;20.00;99.90;;;;;;5056430;28;19979;-67
2022/09/09 09:54:16;;;;;;;;;;;19.90;99.90;;;;;;5056509;28;19932;-67
2022/09/09 09:56:47;;;;;;;;;;;19.80;99.90;;;;;;5051591;28;20031;-67
2022/09/09 09:59:21;;;;;;;;;;;19.70;99.90;;;;;;5073823;28;20033;-67
2022/09/09 10:01:48;;;;;;;;;;;19.80;99.90;;;;;;5056105;28;19925;-67
2022/09/09 10:04:18;;;;;;;;;;;20.10;99.90;;;;;;5053969;28;20371;-66
2022/09/09 10:06:45;;;;;;;;;;;20.30;99.90;;;;;;5055843;28;19928;-67
2022/09/09 10:09:21;;;;;;;;;;;20.30;99.90;;;;;;5072759;28;20415;-67
2022/09/09 10:11:52;;;;;;;;;;;20.30;99.90;;;;;;5073895;28;19971;-66
2022/09/09 10:14:21;;;;;;;;;;;20.20;99.90;;;;;;5054961;28;19924;-67
2022/09/09 10:16:57;;;;;;;;;;;20.30;99.90;;;;;;5083615;28;20341;-67
2022/09/09 10:19:30;;;;;;;;;;;20.40;99.90;;;;;;5055548;28;20023;-67
2022/09/09 10:22:06;;;;;;;;;;;20.20;99.90;;;;;;5067006;28;20009;-67
2022/09/09 10:24:51;;;;;;;;;;;20.20;99.90;;;;;;5073468;28;19959;-67
2022/09/09 10:27:20;;;;;;;;;;;20.00;99.90;;;;;;5057800;28;19990;-67
2022/09/09 10:30:08;;;;;;;;;;;19.70;99.90;;;;;;5106796;22;19967;-67
2022/09/09 10:32:53;;;;;;;;;;;19.60;99.90;;;;;;5092133;28;19924;-67
2022/09/09 10:35:29;;;;;;;;;;;19.60;99.90;;;;;;5093384;28;20423;-67
2022/09/09 10:38:11;;;;;;;;;;;19.70;99.90;;;;;;5074763;28;19970;-67
2022/09/09 10:40:40;;;;;;;;;;;20.10;99.90;;;;;;5095690;28;19924;-66
2022/09/09 10:43:14;;;;;;;;;;;20.10;99.90;;;;;;5066077;28;19924;-67
2022/09/09 10:45:48;;;;;;;;;;;19.90;99.90;;;;;;5071303;28;20459;-67
2022/09/09 10:48:37;;;;;;;;;;;19.90;99.90;;;;;;5072846;28;19931;-67
2022/09/09 10:51:14;;;;;;;;;;;19.90;99.90;;;;;;5027517;28;19925;-67
2022/09/09 10:53:47;;;;;;;;;;;20.10;99.90;;;;;;5104926;28;20027;-67
2022/09/09 10:56:16;;;;;;;;;;;20.40;99.90;;;;;;5074152;28;19928;-67
2022/09/09 10:58:44;;;;;;;;;;;20.50;99.90;;;;;;5071760;28;20350;-67
2022/09/09 11:01:16;;;;;;;;;;;20.40;99.90;;;;;;5072324;28;20449;-67
2022/09/09 11:03:44;;;;;;;;;;;20.30;99.90;;;;;;5071294;28;19956;-67
2022/09/09 11:06:15;;;;;;;;;;;20.10;99.90;;;;;;5081207;28;19928;-67
2022/09/09 11:08:42;;;;;;;;;;;20.00;99.90;;;;;;5071909;28;19960;-67
2022/09/09 11:11:11;;;;;;;;;;;19.80;99.90;;;;;;5066984;28;19968;-67
2022/09/09 11:13:40;;;;;;;;;;;20.00;99.90;;;;;;5088366;28;20011;-67
2022/09/09 11:16:16;;;;;;;;;;;19.90;99.90;;;;;;5068226;28;19991;-68
2022/09/09 11:18:44;;;;;;;;;;;19.60;99.90;;;;;;5088099;28;19950;-67
2022/09/09 11:21:17;;;;;;;;;;;19.60;99.90;;;;;;5072174;28;19924;-67
2022/09/09 11:23:46;;;;;;;;;;;19.50;99.90;;;;;;5081409;28;19924;-67
2022/09/09 11:26:16;;;;;;;;;;;19.30;99.90;;;;;;5085965;28;19925;-67
2022/09/09 11:28:52;;;;;;;;;;;22.10;99.90;;;;;;5071317;28;19931;-67
2022/09/09 11:31:27;;;;;;;;;;;21.80;99.90;;;;;;5088454;28;19928;-67
2022/09/09 11:33:58;;;;;;;;;;;21.70;99.90;;;;;;5077120;28;19982;-67
2022/09/09 11:36:40;;;;;;;;;;;21.70;99.90;;;;;;5087854;28;19928;-66
2022/09/09 11:39:19;;;;;;;;;;;22.00;99.90;;;;;;5083467;28;20028;-67
2022/09/09 11:41:45;;;;;;;;;;;24.50;99.90;;;;;;5070573;28;19925;-67
2022/09/09 11:44:13;;;;;;;;;;;25.20;99.90;;;;;;5066414;28;19931;-68
2022/09/09 11:46:41;;;;;;;;;;;26.60;99.90;;;;;;5063568;28;19924;-67
2022/09/09 11:49:26;;;;;;;;;;;24.30;99.90;;;;;;5066576;28;20396;-67
2022/09/09 11:51:54;;;;;;;;;;;24.60;99.90;;;;;;5065819;28;20019;-67
2022/09/09 11:54:33;;;;;;;;;;;23.20;99.90;;;;;;5085772;28;19983;-67
2022/09/09 11:57:00;;;;;;;;;;;22.30;99.90;;;;;;5081598;28;19932;-67
2022/09/09 11:59:27;;;;;;;;;;;22.90;99.90;;;;;;5086651;28;19928;-67
2022/09/09 12:01:56;;;;;;;;;;;22.30;99.90;;;;;;5087395;28;19925;-67
2022/09/09 12:04:29;;;;;;;;;;;21.60;99.90;;;;;;5068500;28;20023;-67
2022/09/09 12:06:58;;;;;;;;;;;21.80;99.90;;;;;;5066977;28;19924;-67
2022/09/09 12:09:28;;;;;;;;;;;21.70;99.90;;;;;;5083648;28;20347;-67
2022/09/09 12:12:07;;;;;;;;;;;21.60;99.90;;;;;;5093618;28;19978;-67
2022/09/09 12:14:37;;;;;;;;;;;21.00;99.90;;;;;;5069209;28;19970;-67
2022/09/09 12:17:19;;;;;;;;;;;21.00;99.90;;;;;;5070040;28;19970;-67
2022/09/09 12:19:46;;;;;;;;;;;20.70;99.90;;;;;;5090329;28;19925;-67
2022/09/09 12:22:17;;;;;;;;;;;20.70;99.90;;;;;;5064011;28;20311;-67
2022/09/09 12:24:47;;;;;;;;;;;20.20;99.90;;;;;;5067677;28;19936;-67
2022/09/09 12:27:19;;;;;;;;;;;19.80;99.90;;;;;;5094626;28;20014;-67
2022/09/09 12:29:48;;;;;;;;;;;20.00;99.90;;;;;;5067161;28;19933;-67
2022/09/09 12:32:17;;;;;;;;;;;20.70;99.90;;;;;;5086203;28;20371;-67
2022/09/09 12:34:45;;;;;;;;;;;20.80;99.90;;;;;;5085660;28;19925;-67
2022/09/09 12:37:18;;;;;;;;;;;21.10;99.90;;;;;;5069672;28;20449;-66
2022/09/09 12:39:46;;;;;;;;;;;21.70;99.90;;;;;;5058348;28;20450;-68
2022/09/09 12:42:19;;;;;;;;;;;21.70;99.90;;;;;;5063787;28;20354;-68
2022/09/09 12:44:53;;;;;;;;;;;21.40;99.90;;;;;;5064917;28;19977;-67
2022/09/09 12:47:21;;;;;;;;;;;21.40;99.90;;;;;;5095757;28;19925;-68
2022/09/09 12:49:49;;;;;;;;;;;21.30;99.90;;;;;;5067525;28;20363;-67
2022/09/09 12:52:18;;;;;;;;;;;21.70;99.90;;;;;;5088982;28;20461;-68
2022/09/09 12:54:46;;;;;;;;;;;21.50;99.90;;;;;;5102249;28;19925;-67
2022/09/09 12:57:13;;;;;;;;;;;21.80;99.90;;;;;;5069560;28;19924;-67
2022/09/09 12:59:44;;;;;;;;;;;22.30;99.90;;;;;;5068253;28;19955;-68
2022/09/09 13:02:17;;;;;;;;;;;22.10;99.90;;;;;;5069403;28;20400;-67
2022/09/09 13:04:44;;;;;;;;;;;21.80;99.90;;;;;;5085889;28;19931;-67
2022/09/09 13:07:12;;;;;;;;;;;21.20;99.90;;;;;;5068907;28;19939;-67
2022/09/09 13:09:39;;;;;;;;;;;21.00;99.90;;;;;;5068337;28;19928;-67
2022/09/09 13:12:07;;;;;;;;;;;20.70;99.90;;;;;;5073286;28;20297;-67
2022/09/09 13:14:37;;;;;;;;;;;20.60;99.90;;;;;;5069176;28;19987;-67
2022/09/09 13:17:06;;;;;;;;;;;20.50;99.90;;;;;;5069573;28;19925;-67
2022/09/09 13:19:35;;;;;;;;;;;20.30;99.90;;;;;;5068629;28;19952;-67
2022/09/09 13:22:12;;;;;;;;;;;20.10;99.90;;;;;;5065868;28;19983;-68
2022/09/09 13:24:38;;;;;;;;;;;20.40;99.90;;;;;;5098793;28;20400;-68
2022/09/09 13:27:20;;;;;;;;;;;20.70;99.90;;;;;;5064781;28;19929;-68
2022/09/09 13:29:52;;;;;;;;;;;21.50;99.90;;;;;;5060890;28;19936;-68
2022/09/09 13:32:20;;;;;;;;;;;22.10;99.90;;;;;;5085985;28;19955;-68
2022/09/09 13:34:51;;;;;;;;;;;24.30;99.90;;;;;;5068661;28;19963;-67
2022/09/09 13:37:21;;;;;;;;;;;25.40;99.90;;;;;;5066267;28;20402;-68
2022/09/09 13:39:52;;;;;;;;;;;25.00;99.90;;;;;;5067455;28;19937;-68
2022/09/09 13:42:23;;;;;;;;;;;24.90;99.90;;;;;;5063278;28;20331;-69
2022/09/09 13:44:50;;;;;;;;;;;25.80;99.90;;;;;;5077434;28;20404;-68
2022/09/09 13:47:19;;;;;;;;;;;25.70;99.90;;;;;;5068722;28;19951;-69
2022/09/09 13:49:48;;;;;;;;;;;24.80;99.90;;;;;;5067394;28;20312;-69
2022/09/09 13:52:16;;;;;;;;;;;23.50;99.90;;;;;;5097573;28;20346;-68
2022/09/09 13:54:43;;;;;;;;;;;22.10;99.90;;;;;;5067886;28;19956;-68
2022/09/09 13:57:15;;;;;;;;;;;21.50;99.90;;;;;;5068948;28;19933;-69
2022/09/09 13:59:42;;;;;;;;;;;21.10;99.90;;;;;;5093606;28;20306;-68
2022/09/09 14:02:09;;;;;;;;;;;21.10;99.90;;;;;;5068937;28;19982;-68
2022/09/09 14:04:35;;;;;;;;;;;21.40;99.90;;;;;;5068536;28;19952;-68
2022/09/09 14:07:04;;;;;;;;;;;21.20;99.90;;;;;;5072217;28;20429;-69
2022/09/09 14:09:31;;;;;;;;;;;21.80;99.90;;;;;;5095887;28;20285;-68
2022/09/09 14:11:57;;;;;;;;;;;22.20;99.90;;;;;;5068723;28;19925;-67
2022/09/09 14:14:25;;;;;;;;;;;22.30;99.90;;;;;;5066970;28;19925;-69
2022/09/09 14:16:51;;;;;;;;;;;21.50;99.90;;;;;;5079403;28;19931;-67
2022/09/09 14:19:18;;;;;;;;;;;21.20;99.90;;;;;;5068030;28;19936;-67
2022/09/09 14:21:45;;;;;;;;;;;21.10;99.90;;;;;;5088746;28;20023;-67
2022/09/09 14:24:14;;;;;;;;;;;21.10;99.90;;;;;;5072221;28;20405;-67
2022/09/09 14:26:41;;;;;;;;;;;21.20;99.90;;;;;;5088904;28;19925;-67
2022/09/09 14:29:08;;;;;;;;;;;21.20;99.90;;;;;;5071526;28;20418;-67
2022/09/09 14:31:35;;;;;;;;;;;21.50;99.90;;;;;;5071918;28;19924;-67
2022/09/09 14:34:01;;;;;;;;;;;21.60;99.90;;;;;;5071900;28;19929;-68